Date,TemperatureHighF,TemperatureAvgF,TemperatureLowF,DewpointHighF,DewpointAvgF,DewpointLowF,HumidityHigh,HumidityAvg,HumidityLow,PressureMaxIn,PressureMinIn,WindSpeedMaxMPH,WindSpeedAvgMPH,GustSpeedMaxMPH,PrecipitationSumIn
2013-8-1,-200.0,0.0,200.0,-99.9,-99.9,-99.9,0,0,100,29.95,29.83,7,1,15,0.01
2013-8-2,-200.0,0.0,200.0,-99.9,-99.9,-99.9,0,0,100,29.87,29.77,10,2,13,0.01
2013-8-3,-200.0,0.0,200.0,-99.9,-99.9,-99.9,0,0,100,29.87,29.80,13,2,18,0.00
2013-8-4,-200.0,0.0,200.0,-99.9,-99.9,-99.9,0,0,100,29.90,29.85,16,2,19,0.01
2013-8-5,-200.0,0.0,200.0,-99.9,-99.9,-99.9,0,0,100,29.93,29.86,8,2,14,0.00
2013-8-6,-200.0,0.0,200.0,-99.9,-99.9,-99.9,0,0,100,29.94,29.88,15,3,22,0.00
2013-8-7,-200.0,0.0,200.0,-99.9,-99.9,-99.9,0,0,100,30.00,29.93,14,2,17,0.02
2013-8-8,-200.0,0.0,200.0,-99.9,-99.9,-99.9,0,0,100,29.93,29.84,11,2,18,0.03
2013-8-9,-200.0,0.0,200.0,-99.9,-99.9,-99.9,0,0,100,29.88,29.81,10,2,18,0.00
2013-8-10,-200.0,0.0,200.0,-99.9,-99.9,-99.9,0,0,100,29.94,29.88,16,3,20,0.00
2013-8-11,-200.0,0.0,200.0,-99.9,-99.9,-99.9,0,0,100,29.92,29.83,10,2,17,0.01
2013-8-12,-200.0,0.0,200.0,-99.9,-99.9,-99.9,0,0,100,29.89,29.83,14,2,17,0.01
2013-8-13,-200.0,0.0,200.0,-99.9,-99.9,-99.9,0,0,100,29.89,29.80,10,2,14,0.00
2013-8-14,-200.0,0.0,200.0,-99.9,-99.9,-99.9,0,0,100,29.87,29.77,9,1,17,0.00
2013-8-15,-200.0,0.0,200.0,-99.9,-99.9,-99.9,0,0,100,29.85,29.79,15,2,19,0.01
2013-8-16,-200.0,0.0,200.0,-99.9,-99.9,-99.9,0,0,100,29.89,29.82,11,2,17,0.01
2013-8-17,-200.0,0.0,200.0,-99.9,-99.9,-99.9,0,0,100,29.87,29.73,7,1,14,0.01
2013-8-18,-200.0,0.0,200.0,-99.9,-99.9,-99.9,0,0,100,29.78,29.68,10,2,12,0.00
2013-8-19,-200.0,0.0,200.0,-99.9,-99.9,-99.9,0,0,100,29.81,29.69,11,2,15,0.00
2013-8-20,-200.0,0.0,200.0,-99.9,-99.9,-99.9,0,0,100,29.80,29.73,15,2,18,0.01
2013-8-21,-200.0,0.0,200.0,-99.9,-99.9,-99.9,0,0,100,29.85,29.78,12,2,17,0.00
2013-8-22,-200.0,0.0,200.0,-99.9,-99.9,-99.9,0,0,100,29.88,29.80,16,4,19,0.00
2013-8-23,-200.0,0.0,200.0,-99.9,-99.9,-99.9,0,0,100,29.82,29.67,9,2,15,0.00
2013-8-24,-200.0,0.0,200.0,-99.9,-99.9,-99.9,0,0,100,29.78,29.71,18,3,21,0.00
2013-8-25,-200.0,0.0,200.0,-99.9,-99.9,-99.9,0,0,100,29.84,29.77,12,3,17,0.00
2013-8-26,-200.0,0.0,200.0,-99.9,-99.9,-99.9,0,0,100,29.91,29.78,13,2,19,0.00
2013-8-27,-200.0,0.0,200.0,-99.9,-99.9,-99.9,0,0,100,29.80,29.71,12,2,18,0.00
2013-8-28,-200.0,0.0,200.0,-99.9,-99.9,-99.9,0,0,100,29.84,29.73,18,4,22,0.02
2013-8-29,-200.0,0.0,200.0,-99.9,-99.9,-99.9,0,0,100,29.96,29.84,14,3,19,0.00
2013-8-30,-200.0,0.0,200.0,-99.9,-99.9,-99.9,0,0,100,29.93,29.80,10,2,15,0.01
2013-8-31,-200.0,0.0,200.0,-99.9,-99.9,-99.9,0,0,100,29.87,29.78,16,3,19,0.01